sensor_id;sensor_type;location;lat;lon;timestamp;P1;durP1;ratioP1;P2;durP2;ratioP2
60344;SDS011;46188;52.324;8.032;2023-04-12T00:02:09;4.45;;;1.80;;
60344;SDS011;46188;52.324;8.032;2023-04-12T00:04:34;5.40;;;1.83;;
60344;SDS011;46188;52.324;8.032;2023-04-12T00:07:00;6.82;;;2.15;;
60344;SDS011;46188;52.324;8.032;2023-04-12T00:09:26;4.05;;;1.83;;
60344;SDS011;46188;52.324;8.032;2023-04-12T00:11:57;4.93;;;2.40;;
60344;SDS011;46188;52.324;8.032;2023-04-12T00:14:26;5.25;;;2.28;;
60344;SDS011;46188;52.324;8.032;2023-04-12T00:16:51;8.40;;;2.65;;
60344;SDS011;46188;52.324;8.032;2023-04-12T00:19:16;6.63;;;2.30;;
60344;SDS011;46188;52.324;8.032;2023-04-12T00:21:42;4.55;;;2.40;;
60344;SDS011;46188;52.324;8.032;2023-04-12T00:24:08;5.75;;;2.00;;
60344;SDS011;46188;52.324;8.032;2023-04-12T00:26:33;4.82;;;2.10;;
60344;SDS011;46188;52.324;8.032;2023-04-12T00:28:58;4.95;;;2.10;;
60344;SDS011;46188;52.324;8.032;2023-04-12T00:31:24;4.78;;;2.30;;
60344;SDS011;46188;52.324;8.032;2023-04-12T00:33:49;10.35;;;2.78;;
60344;SDS011;46188;52.324;8.032;2023-04-12T00:36:14;8.30;;;2.45;;
60344;SDS011;46188;52.324;8.032;2023-04-12T00:38:40;6.90;;;2.20;;
60344;SDS011;46188;52.324;8.032;2023-04-12T00:41:06;5.05;;;2.10;;
60344;SDS011;46188;52.324;8.032;2023-04-12T00:43:31;8.00;;;2.67;;
60344;SDS011;46188;52.324;8.032;2023-04-12T00:45:57;7.25;;;3.03;;
60344;SDS011;46188;52.324;8.032;2023-04-12T00:48:23;7.55;;;2.83;;
60344;SDS011;46188;52.324;8.032;2023-04-12T00:50:50;10.20;;;2.45;;
60344;SDS011;46188;52.324;8.032;2023-04-12T00:53:19;6.80;;;2.22;;
60344;SDS011;46188;52.324;8.032;2023-04-12T00:55:46;6.43;;;3.60;;
60344;SDS011;46188;52.324;8.032;2023-04-12T00:58:13;4.57;;;2.10;;
60344;SDS011;46188;52.324;8.032;2023-04-12T01:00:40;5.53;;;2.22;;
60344;SDS011;46188;52.324;8.032;2023-04-12T01:03:05;7.97;;;2.13;;
60344;SDS011;46188;52.324;8.032;2023-04-12T01:05:34;7.78;;;2.40;;
60344;SDS011;46188;52.324;8.032;2023-04-12T01:08:14;8.00;;;2.35;;
60344;SDS011;46188;52.324;8.032;2023-04-12T01:16:24;6.93;;;2.53;;
60344;SDS011;46188;52.324;8.032;2023-04-12T01:18:55;8.90;;;2.92;;
60344;SDS011;46188;52.324;8.032;2023-04-12T01:25:02;5.13;;;2.00;;
60344;SDS011;46188;52.324;8.032;2023-04-12T01:27:27;5.93;;;2.33;;
60344;SDS011;46188;52.324;8.032;2023-04-12T01:29:59;6.20;;;2.08;;
60344;SDS011;46188;52.324;8.032;2023-04-12T01:32:26;4.65;;;2.38;;
60344;SDS011;46188;52.324;8.032;2023-04-12T01:34:53;3.55;;;2.20;;
60344;SDS011;46188;52.324;8.032;2023-04-12T01:37:21;4.43;;;2.33;;
60344;SDS011;46188;52.324;8.032;2023-04-12T01:39:48;5.63;;;2.10;;
60344;SDS011;46188;52.324;8.032;2023-04-12T01:42:17;7.95;;;1.90;;
60344;SDS011;46188;52.324;8.032;2023-04-12T01:44:45;4.93;;;1.90;;
60344;SDS011;46188;52.324;8.032;2023-04-12T01:47:11;6.30;;;2.20;;
60344;SDS011;46188;52.324;8.032;2023-04-12T01:49:38;6.03;;;2.03;;
60344;SDS011;46188;52.324;8.032;2023-04-12T01:52:14;4.07;;;1.92;;
60344;SDS011;46188;52.324;8.032;2023-04-12T01:54:43;7.03;;;1.88;;
60344;SDS011;46188;52.324;8.032;2023-04-12T01:57:08;4.88;;;1.98;;
60344;SDS011;46188;52.324;8.032;2023-04-12T01:59:36;9.73;;;2.00;;
60344;SDS011;46188;52.324;8.032;2023-04-12T02:02:04;4.15;;;2.22;;
60344;SDS011;46188;52.324;8.032;2023-04-12T02:04:30;5.47;;;2.40;;
60344;SDS011;46188;52.324;8.032;2023-04-12T02:06:57;4.85;;;2.15;;
60344;SDS011;46188;52.324;8.032;2023-04-12T02:09:22;3.85;;;1.60;;
60344;SDS011;46188;52.324;8.032;2023-04-12T02:11:48;7.47;;;2.08;;
60344;SDS011;46188;52.324;8.032;2023-04-12T02:14:13;6.85;;;2.20;;
60344;SDS011;46188;52.324;8.032;2023-04-12T02:16:39;2.53;;;1.55;;
60344;SDS011;46188;52.324;8.032;2023-04-12T02:19:06;5.65;;;2.10;;
60344;SDS011;46188;52.324;8.032;2023-04-12T02:21:41;5.60;;;2.00;;
60344;SDS011;46188;52.324;8.032;2023-04-12T02:24:09;4.22;;;1.85;;
60344;SDS011;46188;52.324;8.032;2023-04-12T02:26:35;6.75;;;1.88;;
60344;SDS011;46188;52.324;8.032;2023-04-12T02:29:01;5.13;;;2.17;;
60344;SDS011;46188;52.324;8.032;2023-04-12T02:31:27;7.13;;;1.88;;
60344;SDS011;46188;52.324;8.032;2023-04-12T02:33:52;8.40;;;1.75;;
60344;SDS011;46188;52.324;8.032;2023-04-12T02:36:17;6.00;;;1.85;;
60344;SDS011;46188;52.324;8.032;2023-04-12T02:38:42;5.10;;;2.22;;
60344;SDS011;46188;52.324;8.032;2023-04-12T02:41:07;5.57;;;2.05;;
60344;SDS011;46188;52.324;8.032;2023-04-12T02:43:33;6.10;;;2.15;;
60344;SDS011;46188;52.324;8.032;2023-04-12T02:45:58;6.20;;;1.85;;
60344;SDS011;46188;52.324;8.032;2023-04-12T02:48:24;6.75;;;2.58;;
60344;SDS011;46188;52.324;8.032;2023-04-12T02:50:49;5.03;;;1.70;;
60344;SDS011;46188;52.324;8.032;2023-04-12T02:53:15;3.40;;;1.77;;
60344;SDS011;46188;52.324;8.032;2023-04-12T02:55:40;5.82;;;1.98;;
60344;SDS011;46188;52.324;8.032;2023-04-12T02:58:05;4.72;;;1.90;;
60344;SDS011;46188;52.324;8.032;2023-04-12T03:00:31;4.68;;;1.65;;
60344;SDS011;46188;52.324;8.032;2023-04-12T03:02:56;3.17;;;1.60;;
60344;SDS011;46188;52.324;8.032;2023-04-12T03:05:22;5.03;;;1.95;;
60344;SDS011;46188;52.324;8.032;2023-04-12T03:07:48;5.85;;;1.77;;
60344;SDS011;46188;52.324;8.032;2023-04-12T03:10:13;7.78;;;2.38;;
60344;SDS011;46188;52.324;8.032;2023-04-12T03:12:38;3.30;;;1.80;;
60344;SDS011;46188;52.324;8.032;2023-04-12T03:15:04;9.18;;;2.28;;
60344;SDS011;46188;52.324;8.032;2023-04-12T03:17:29;4.13;;;1.60;;
60344;SDS011;46188;52.324;8.032;2023-04-12T03:19:55;5.55;;;1.77;;
60344;SDS011;46188;52.324;8.032;2023-04-12T03:22:22;3.80;;;1.60;;
60344;SDS011;46188;52.324;8.032;2023-04-12T03:24:47;7.57;;;1.80;;
60344;SDS011;46188;52.324;8.032;2023-04-12T03:27:13;4.30;;;2.00;;
60344;SDS011;46188;52.324;8.032;2023-04-12T03:29:38;4.97;;;1.60;;
60344;SDS011;46188;52.324;8.032;2023-04-12T03:32:04;8.80;;;2.30;;
60344;SDS011;46188;52.324;8.032;2023-04-12T03:34:29;5.13;;;1.55;;
60344;SDS011;46188;52.324;8.032;2023-04-12T03:36:56;8.13;;;1.98;;
60344;SDS011;46188;52.324;8.032;2023-04-12T03:39:22;3.67;;;1.50;;
60344;SDS011;46188;52.324;8.032;2023-04-12T03:41:47;4.90;;;1.60;;
60344;SDS011;46188;52.324;8.032;2023-04-12T03:44:12;5.38;;;1.50;;
60344;SDS011;46188;52.324;8.032;2023-04-12T03:46:38;5.93;;;1.75;;
60344;SDS011;46188;52.324;8.032;2023-04-12T03:49:03;6.25;;;1.70;;
60344;SDS011;46188;52.324;8.032;2023-04-12T03:51:28;5.70;;;1.63;;
60344;SDS011;46188;52.324;8.032;2023-04-12T03:53:54;4.60;;;1.52;;
60344;SDS011;46188;52.324;8.032;2023-04-12T03:56:20;4.63;;;1.92;;
60344;SDS011;46188;52.324;8.032;2023-04-12T03:58:46;4.57;;;2.17;;
60344;SDS011;46188;52.324;8.032;2023-04-12T04:01:11;6.13;;;1.88;;
60344;SDS011;46188;52.324;8.032;2023-04-12T04:03:37;5.07;;;1.83;;
60344;SDS011;46188;52.324;8.032;2023-04-12T04:06:06;4.75;;;3.00;;
60344;SDS011;46188;52.324;8.032;2023-04-12T04:08:32;7.10;;;2.60;;
60344;SDS011;46188;52.324;8.032;2023-04-12T04:10:57;5.00;;;1.33;;
60344;SDS011;46188;52.324;8.032;2023-04-12T04:13:23;7.35;;;1.73;;
60344;SDS011;46188;52.324;8.032;2023-04-12T04:15:50;5.40;;;1.80;;
60344;SDS011;46188;52.324;8.032;2023-04-12T04:18:16;7.10;;;1.92;;
60344;SDS011;46188;52.324;8.032;2023-04-12T04:20:41;5.65;;;2.10;;
60344;SDS011;46188;52.324;8.032;2023-04-12T04:23:06;5.20;;;1.70;;
60344;SDS011;46188;52.324;8.032;2023-04-12T04:25:34;7.93;;;2.58;;
60344;SDS011;46188;52.324;8.032;2023-04-12T04:27:59;4.93;;;2.15;;
60344;SDS011;46188;52.324;8.032;2023-04-12T04:30:26;5.43;;;1.52;;
60344;SDS011;46188;52.324;8.032;2023-04-12T04:32:51;5.03;;;2.00;;
60344;SDS011;46188;52.324;8.032;2023-04-12T04:35:17;5.40;;;1.90;;
60344;SDS011;46188;52.324;8.032;2023-04-12T04:37:42;6.55;;;1.90;;
60344;SDS011;46188;52.324;8.032;2023-04-12T04:40:08;5.90;;;2.03;;
60344;SDS011;46188;52.324;8.032;2023-04-12T04:42:35;7.03;;;1.80;;
60344;SDS011;46188;52.324;8.032;2023-04-12T04:45:02;5.00;;;1.83;;
60344;SDS011;46188;52.324;8.032;2023-04-12T04:47:36;6.75;;;2.60;;
60344;SDS011;46188;52.324;8.032;2023-04-12T04:50:01;5.18;;;1.55;;
60344;SDS011;46188;52.324;8.032;2023-04-12T04:52:27;6.68;;;2.00;;
60344;SDS011;46188;52.324;8.032;2023-04-12T04:54:52;10.18;;;2.33;;
60344;SDS011;46188;52.324;8.032;2023-04-12T04:57:21;5.05;;;1.60;;
60344;SDS011;46188;52.324;8.032;2023-04-12T04:59:46;4.65;;;1.83;;
60344;SDS011;46188;52.324;8.032;2023-04-12T05:02:12;5.05;;;1.73;;
60344;SDS011;46188;52.324;8.032;2023-04-12T05:04:37;4.82;;;1.85;;
60344;SDS011;46188;52.324;8.032;2023-04-12T05:07:02;6.07;;;2.15;;
60344;SDS011;46188;52.324;8.032;2023-04-12T05:09:27;4.03;;;1.80;;
60344;SDS011;46188;52.324;8.032;2023-04-12T05:11:53;8.60;;;2.42;;
60344;SDS011;46188;52.324;8.032;2023-04-12T05:14:18;5.05;;;1.80;;
60344;SDS011;46188;52.324;8.032;2023-04-12T05:16:43;2.97;;;1.80;;
60344;SDS011;46188;52.324;8.032;2023-04-12T05:19:09;4.35;;;1.80;;
60344;SDS011;46188;52.324;8.032;2023-04-12T05:21:34;4.57;;;1.60;;
60344;SDS011;46188;52.324;8.032;2023-04-12T05:24:00;3.50;;;1.60;;
60344;SDS011;46188;52.324;8.032;2023-04-12T05:26:25;4.40;;;1.77;;
60344;SDS011;46188;52.324;8.032;2023-04-12T05:28:50;6.45;;;1.60;;
60344;SDS011;46188;52.324;8.032;2023-04-12T05:31:15;4.18;;;1.90;;
60344;SDS011;46188;52.324;8.032;2023-04-12T05:33:42;6.95;;;1.83;;
60344;SDS011;46188;52.324;8.032;2023-04-12T05:36:10;4.68;;;1.65;;
60344;SDS011;46188;52.324;8.032;2023-04-12T05:38:35;4.57;;;1.60;;
60344;SDS011;46188;52.324;8.032;2023-04-12T05:41:00;2.30;;;1.60;;
60344;SDS011;46188;52.324;8.032;2023-04-12T05:43:28;6.43;;;1.77;;
60344;SDS011;46188;52.324;8.032;2023-04-12T05:45:54;3.83;;;1.65;;
60344;SDS011;46188;52.324;8.032;2023-04-12T05:48:19;6.90;;;1.73;;
60344;SDS011;46188;52.324;8.032;2023-04-12T05:50:51;4.95;;;1.92;;
60344;SDS011;46188;52.324;8.032;2023-04-12T05:53:17;5.63;;;1.95;;
60344;SDS011;46188;52.324;8.032;2023-04-12T05:55:43;5.22;;;1.80;;
60344;SDS011;46188;52.324;8.032;2023-04-12T05:58:08;4.43;;;1.88;;
60344;SDS011;46188;52.324;8.032;2023-04-12T06:00:34;3.47;;;1.63;;
60344;SDS011;46188;52.324;8.032;2023-04-12T06:03:00;6.32;;;1.77;;
60344;SDS011;46188;52.324;8.032;2023-04-12T06:05:25;3.58;;;1.63;;
60344;SDS011;46188;52.324;8.032;2023-04-12T06:07:50;4.65;;;1.42;;
60344;SDS011;46188;52.324;8.032;2023-04-12T06:10:16;6.57;;;2.15;;
60344;SDS011;46188;52.324;8.032;2023-04-12T06:12:41;3.05;;;1.70;;
60344;SDS011;46188;52.324;8.032;2023-04-12T06:15:07;3.40;;;1.30;;
60344;SDS011;46188;52.324;8.032;2023-04-12T06:17:33;5.82;;;1.55;;
60344;SDS011;46188;52.324;8.032;2023-04-12T06:19:58;4.15;;;1.70;;
60344;SDS011;46188;52.324;8.032;2023-04-12T06:22:24;4.30;;;2.35;;
60344;SDS011;46188;52.324;8.032;2023-04-12T06:24:49;8.57;;;1.95;;
60344;SDS011;46188;52.324;8.032;2023-04-12T06:27:14;4.82;;;1.60;;
60344;SDS011;46188;52.324;8.032;2023-04-12T06:29:40;4.93;;;1.50;;
60344;SDS011;46188;52.324;8.032;2023-04-12T06:32:05;4.18;;;1.50;;
60344;SDS011;46188;52.324;8.032;2023-04-12T06:34:30;3.75;;;1.90;;
60344;SDS011;46188;52.324;8.032;2023-04-12T06:36:56;5.55;;;1.63;;
60344;SDS011;46188;52.324;8.032;2023-04-12T06:39:21;2.92;;;1.38;;
60344;SDS011;46188;52.324;8.032;2023-04-12T06:41:46;3.08;;;1.50;;
60344;SDS011;46188;52.324;8.032;2023-04-12T06:44:12;4.68;;;1.52;;
60344;SDS011;46188;52.324;8.032;2023-04-12T06:46:37;3.65;;;1.52;;
60344;SDS011;46188;52.324;8.032;2023-04-12T06:49:02;4.63;;;1.80;;
60344;SDS011;46188;52.324;8.032;2023-04-12T06:51:27;4.40;;;1.70;;
60344;SDS011;46188;52.324;8.032;2023-04-12T06:53:53;3.30;;;1.60;;
60344;SDS011;46188;52.324;8.032;2023-04-12T06:56:20;3.80;;;1.45;;
60344;SDS011;46188;52.324;8.032;2023-04-12T06:58:45;5.75;;;1.70;;
60344;SDS011;46188;52.324;8.032;2023-04-12T07:01:10;3.55;;;1.60;;
60344;SDS011;46188;52.324;8.032;2023-04-12T07:03:37;5.40;;;1.92;;
60344;SDS011;46188;52.324;8.032;2023-04-12T07:06:02;6.07;;;1.52;;
60344;SDS011;46188;52.324;8.032;2023-04-12T07:08:28;4.93;;;1.70;;
60344;SDS011;46188;52.324;8.032;2023-04-12T07:10:54;3.88;;;1.50;;
60344;SDS011;46188;52.324;8.032;2023-04-12T07:13:19;4.47;;;1.90;;
60344;SDS011;46188;52.324;8.032;2023-04-12T07:15:45;6.57;;;1.98;;
60344;SDS011;46188;52.324;8.032;2023-04-12T07:18:12;6.15;;;2.38;;
60344;SDS011;46188;52.324;8.032;2023-04-12T07:20:38;3.28;;;1.63;;
60344;SDS011;46188;52.324;8.032;2023-04-12T07:23:03;3.15;;;1.80;;
60344;SDS011;46188;52.324;8.032;2023-04-12T07:25:28;4.55;;;1.38;;
60344;SDS011;46188;52.324;8.032;2023-04-12T07:27:53;5.72;;;1.63;;
60344;SDS011;46188;52.324;8.032;2023-04-12T07:30:18;4.90;;;1.58;;
60344;SDS011;46188;52.324;8.032;2023-04-12T07:32:44;4.13;;;1.48;;
60344;SDS011;46188;52.324;8.032;2023-04-12T07:35:09;3.55;;;1.30;;
60344;SDS011;46188;52.324;8.032;2023-04-12T07:37:36;3.80;;;1.65;;
60344;SDS011;46188;52.324;8.032;2023-04-12T07:40:02;4.18;;;1.95;;
60344;SDS011;46188;52.324;8.032;2023-04-12T07:42:27;2.95;;;1.60;;
60344;SDS011;46188;52.324;8.032;2023-04-12T07:44:52;4.80;;;1.50;;
60344;SDS011;46188;52.324;8.032;2023-04-12T07:47:18;7.22;;;2.15;;
60344;SDS011;46188;52.324;8.032;2023-04-12T07:49:43;3.42;;;2.05;;
60344;SDS011;46188;52.324;8.032;2023-04-12T07:52:08;4.60;;;1.65;;
60344;SDS011;46188;52.324;8.032;2023-04-12T07:54:33;3.35;;;1.50;;
60344;SDS011;46188;52.324;8.032;2023-04-12T07:56:59;2.55;;;1.40;;
60344;SDS011;46188;52.324;8.032;2023-04-12T07:59:26;3.40;;;1.58;;
60344;SDS011;46188;52.324;8.032;2023-04-12T08:01:52;4.28;;;1.60;;
60344;SDS011;46188;52.324;8.032;2023-04-12T08:04:17;4.65;;;1.83;;
60344;SDS011;46188;52.324;8.032;2023-04-12T08:06:42;3.83;;;1.60;;
60344;SDS011;46188;52.324;8.032;2023-04-12T08:09:07;11.60;;;2.00;;
60344;SDS011;46188;52.324;8.032;2023-04-12T08:11:33;6.05;;;1.33;;
60344;SDS011;46188;52.324;8.032;2023-04-12T08:13:59;3.92;;;1.55;;
60344;SDS011;46188;52.324;8.032;2023-04-12T08:16:24;2.40;;;1.55;;
60344;SDS011;46188;52.324;8.032;2023-04-12T08:18:50;2.22;;;1.30;;
60344;SDS011;46188;52.324;8.032;2023-04-12T08:21:15;5.38;;;1.40;;
60344;SDS011;46188;52.324;8.032;2023-04-12T08:23:40;2.40;;;1.25;;
60344;SDS011;46188;52.324;8.032;2023-04-12T08:26:06;3.33;;;1.63;;
60344;SDS011;46188;52.324;8.032;2023-04-12T08:28:31;3.22;;;1.50;;
60344;SDS011;46188;52.324;8.032;2023-04-12T08:30:57;2.60;;;1.63;;
60344;SDS011;46188;52.324;8.032;2023-04-12T08:33:23;5.85;;;2.33;;
60344;SDS011;46188;52.324;8.032;2023-04-12T08:35:48;4.35;;;1.60;;
60344;SDS011;46188;52.324;8.032;2023-04-12T08:38:14;3.00;;;1.60;;
60344;SDS011;46188;52.324;8.032;2023-04-12T08:40:40;3.28;;;1.40;;
60344;SDS011;46188;52.324;8.032;2023-04-12T08:43:07;2.80;;;1.60;;
60344;SDS011;46188;52.324;8.032;2023-04-12T08:45:33;2.40;;;1.70;;
60344;SDS011;46188;52.324;8.032;2023-04-12T08:48:00;2.67;;;1.95;;
60344;SDS011;46188;52.324;8.032;2023-04-12T08:50:27;4.03;;;1.45;;
60344;SDS011;46188;52.324;8.032;2023-04-12T08:52:53;4.70;;;1.67;;
60344;SDS011;46188;52.324;8.032;2023-04-12T08:55:19;2.90;;;1.48;;
60344;SDS011;46188;52.324;8.032;2023-04-12T08:57:45;5.32;;;1.77;;
60344;SDS011;46188;52.324;8.032;2023-04-12T09:00:11;1.80;;;1.15;;
60344;SDS011;46188;52.324;8.032;2023-04-12T09:02:38;4.28;;;1.40;;
60344;SDS011;46188;52.324;8.032;2023-04-12T09:05:07;2.38;;;1.30;;
60344;SDS011;46188;52.324;8.032;2023-04-12T09:07:34;5.57;;;1.42;;
60344;SDS011;46188;52.324;8.032;2023-04-12T09:10:00;2.08;;;1.23;;
60344;SDS011;46188;52.324;8.032;2023-04-12T09:12:25;3.05;;;1.15;;
60344;SDS011;46188;52.324;8.032;2023-04-12T09:17:33;3.00;;;1.60;;
60344;SDS011;46188;52.324;8.032;2023-04-12T09:20:21;2.15;;;1.30;;
60344;SDS011;46188;52.324;8.032;2023-04-12T09:22:48;2.42;;;1.20;;
60344;SDS011;46188;52.324;8.032;2023-04-12T09:25:14;2.28;;;1.52;;
60344;SDS011;46188;52.324;8.032;2023-04-12T09:27:50;1.60;;;1.08;;
60344;SDS011;46188;52.324;8.032;2023-04-12T09:30:18;2.50;;;1.00;;
60344;SDS011;46188;52.324;8.032;2023-04-12T09:32:44;2.40;;;1.00;;
60344;SDS011;46188;52.324;8.032;2023-04-12T09:35:10;1.90;;;1.10;;
60344;SDS011;46188;52.324;8.032;2023-04-12T09:37:35;1.92;;;1.08;;
60344;SDS011;46188;52.324;8.032;2023-04-12T09:40:01;2.95;;;1.08;;
60344;SDS011;46188;52.324;8.032;2023-04-12T09:42:32;3.80;;;1.20;;
60344;SDS011;46188;52.324;8.032;2023-04-12T09:44:58;3.13;;;1.00;;
60344;SDS011;46188;52.324;8.032;2023-04-12T09:47:36;3.25;;;1.05;;
60344;SDS011;46188;52.324;8.032;2023-04-12T09:50:03;2.47;;;1.35;;
60344;SDS011;46188;52.324;8.032;2023-04-12T09:52:34;1.88;;;0.95;;
60344;SDS011;46188;52.324;8.032;2023-04-12T09:55:01;3.08;;;1.25;;
60344;SDS011;46188;52.324;8.032;2023-04-12T09:57:27;2.30;;;1.25;;
60344;SDS011;46188;52.324;8.032;2023-04-12T09:59:52;3.55;;;1.05;;
60344;SDS011;46188;52.324;8.032;2023-04-12T10:02:26;2.25;;;1.10;;
60344;SDS011;46188;52.324;8.032;2023-04-12T10:04:52;2.35;;;1.30;;
60344;SDS011;46188;52.324;8.032;2023-04-12T10:07:18;1.48;;;1.00;;
60344;SDS011;46188;52.324;8.032;2023-04-12T10:09:43;1.85;;;1.08;;
60344;SDS011;46188;52.324;8.032;2023-04-12T10:12:08;2.00;;;1.10;;
60344;SDS011;46188;52.324;8.032;2023-04-12T10:14:35;1.55;;;1.10;;
60344;SDS011;46188;52.324;8.032;2023-04-12T10:17:02;2.15;;;1.27;;
60344;SDS011;46188;52.324;8.032;2023-04-12T10:19:28;1.85;;;1.05;;
60344;SDS011;46188;52.324;8.032;2023-04-12T10:21:55;1.85;;;1.13;;
60344;SDS011;46188;52.324;8.032;2023-04-12T10:24:22;2.42;;;1.10;;
60344;SDS011;46188;52.324;8.032;2023-04-12T10:26:48;2.20;;;1.20;;
60344;SDS011;46188;52.324;8.032;2023-04-12T10:29:24;2.33;;;1.15;;
60344;SDS011;46188;52.324;8.032;2023-04-12T10:31:50;1.77;;;1.35;;
60344;SDS011;46188;52.324;8.032;2023-04-12T10:34:17;1.70;;;1.33;;
60344;SDS011;46188;52.324;8.032;2023-04-12T10:36:52;2.58;;;1.33;;
60344;SDS011;46188;52.324;8.032;2023-04-12T10:39:33;3.13;;;1.42;;
60344;SDS011;46188;52.324;8.032;2023-04-12T10:42:16;2.75;;;1.60;;
60344;SDS011;46188;52.324;8.032;2023-04-12T10:44:53;1.75;;;1.27;;
60344;SDS011;46188;52.324;8.032;2023-04-12T10:50:19;2.38;;;1.50;;
60344;SDS011;46188;52.324;8.032;2023-04-12T10:55:42;2.13;;;1.60;;
60344;SDS011;46188;52.324;8.032;2023-04-12T10:58:08;3.45;;;1.83;;
60344;SDS011;46188;52.324;8.032;2023-04-12T11:03:22;2.72;;;1.60;;
60344;SDS011;46188;52.324;8.032;2023-04-12T11:05:58;3.25;;;2.10;;
60344;SDS011;46188;52.324;8.032;2023-04-12T11:08:28;4.15;;;2.00;;
60344;SDS011;46188;52.324;8.032;2023-04-12T11:10:58;2.10;;;1.63;;
60344;SDS011;46188;52.324;8.032;2023-04-12T11:13:25;3.70;;;1.70;;
60344;SDS011;46188;52.324;8.032;2023-04-12T11:15:53;3.20;;;1.80;;
60344;SDS011;46188;52.324;8.032;2023-04-12T11:18:20;2.65;;;1.70;;
60344;SDS011;46188;52.324;8.032;2023-04-12T11:20:46;3.85;;;1.88;;
60344;SDS011;46188;52.324;8.032;2023-04-12T11:23:11;2.33;;;1.85;;
60344;SDS011;46188;52.324;8.032;2023-04-12T11:25:36;2.92;;;2.10;;
60344;SDS011;46188;52.324;8.032;2023-04-12T11:28:02;1.85;;;1.50;;
60344;SDS011;46188;52.324;8.032;2023-04-12T11:30:27;2.15;;;1.70;;
60344;SDS011;46188;52.324;8.032;2023-04-12T11:32:52;1.73;;;1.20;;
60344;SDS011;46188;52.324;8.032;2023-04-12T11:35:18;2.10;;;1.65;;
60344;SDS011;46188;52.324;8.032;2023-04-12T11:37:48;2.08;;;1.65;;
60344;SDS011;46188;52.324;8.032;2023-04-12T11:40:13;2.30;;;1.85;;
60344;SDS011;46188;52.324;8.032;2023-04-12T11:42:39;2.63;;;1.58;;
60344;SDS011;46188;52.324;8.032;2023-04-12T11:45:05;2.63;;;1.83;;
60344;SDS011;46188;52.324;8.032;2023-04-12T11:47:31;2.05;;;1.50;;
60344;SDS011;46188;52.324;8.032;2023-04-12T11:49:57;2.22;;;1.88;;
60344;SDS011;46188;52.324;8.032;2023-04-12T11:52:29;1.95;;;1.60;;
60344;SDS011;46188;52.324;8.032;2023-04-12T11:54:58;3.13;;;2.63;;
60344;SDS011;46188;52.324;8.032;2023-04-12T11:57:25;1.80;;;1.40;;
60344;SDS011;46188;52.324;8.032;2023-04-12T11:59:52;1.60;;;1.38;;
60344;SDS011;46188;52.324;8.032;2023-04-12T12:02:21;3.33;;;1.58;;
60344;SDS011;46188;52.324;8.032;2023-04-12T12:04:46;3.08;;;2.70;;
60344;SDS011;46188;52.324;8.032;2023-04-12T12:07:14;2.50;;;1.80;;
60344;SDS011;46188;52.324;8.032;2023-04-12T12:09:41;1.95;;;1.70;;
60344;SDS011;46188;52.324;8.032;2023-04-12T12:12:08;2.00;;;1.40;;
60344;SDS011;46188;52.324;8.032;2023-04-12T12:14:34;1.58;;;1.20;;
60344;SDS011;46188;52.324;8.032;2023-04-12T12:17:00;1.50;;;1.13;;
60344;SDS011;46188;52.324;8.032;2023-04-12T12:19:30;1.65;;;1.30;;
60344;SDS011;46188;52.324;8.032;2023-04-12T12:22:09;2.08;;;1.50;;
60344;SDS011;46188;52.324;8.032;2023-04-12T12:24:36;1.90;;;1.40;;
60344;SDS011;46188;52.324;8.032;2023-04-12T12:27:22;2.88;;;1.70;;
60344;SDS011;46188;52.324;8.032;2023-04-12T12:29:49;2.40;;;1.50;;
60344;SDS011;46188;52.324;8.032;2023-04-12T12:32:17;2.97;;;1.90;;
60344;SDS011;46188;52.324;8.032;2023-04-12T12:34:53;4.18;;;2.63;;
60344;SDS011;46188;52.324;8.032;2023-04-12T12:37:22;4.22;;;2.50;;
60344;SDS011;46188;52.324;8.032;2023-04-12T12:42:46;2.33;;;1.58;;
60344;SDS011;46188;52.324;8.032;2023-04-12T12:45:12;2.20;;;1.70;;
60344;SDS011;46188;52.324;8.032;2023-04-12T12:47:44;4.00;;;1.55;;
60344;SDS011;46188;52.324;8.032;2023-04-12T12:50:18;2.92;;;1.38;;
60344;SDS011;46188;52.324;8.032;2023-04-12T12:52:45;1.73;;;1.30;;
60344;SDS011;46188;52.324;8.032;2023-04-12T12:55:10;3.08;;;1.30;;
60344;SDS011;46188;52.324;8.032;2023-04-12T12:57:39;2.45;;;1.60;;
60344;SDS011;46188;52.324;8.032;2023-04-12T13:00:06;2.30;;;1.70;;
60344;SDS011;46188;52.324;8.032;2023-04-12T13:02:33;2.28;;;1.55;;
60344;SDS011;46188;52.324;8.032;2023-04-12T13:04:58;3.03;;;1.38;;
60344;SDS011;46188;52.324;8.032;2023-04-12T13:07:25;1.92;;;1.40;;
60344;SDS011;46188;52.324;8.032;2023-04-12T13:09:50;2.95;;;1.75;;
60344;SDS011;46188;52.324;8.032;2023-04-12T13:12:16;2.10;;;1.40;;
60344;SDS011;46188;52.324;8.032;2023-04-12T13:14:41;3.50;;;1.60;;
60344;SDS011;46188;52.324;8.032;2023-04-12T13:17:07;1.70;;;1.35;;
60344;SDS011;46188;52.324;8.032;2023-04-12T13:19:32;2.95;;;1.40;;
60344;SDS011;46188;52.324;8.032;2023-04-12T13:21:57;3.25;;;1.70;;
60344;SDS011;46188;52.324;8.032;2023-04-12T13:24:23;2.65;;;1.80;;
60344;SDS011;46188;52.324;8.032;2023-04-12T13:26:48;3.00;;;1.90;;
60344;SDS011;46188;52.324;8.032;2023-04-12T13:29:14;2.15;;;1.85;;
60344;SDS011;46188;52.324;8.032;2023-04-12T13:31:39;4.05;;;2.10;;
60344;SDS011;46188;52.324;8.032;2023-04-12T13:34:05;2.83;;;2.53;;
60344;SDS011;46188;52.324;8.032;2023-04-12T13:36:30;2.60;;;2.22;;
60344;SDS011;46188;52.324;8.032;2023-04-12T13:38:55;3.15;;;2.10;;
60344;SDS011;46188;52.324;8.032;2023-04-12T13:41:20;2.50;;;2.30;;
60344;SDS011;46188;52.324;8.032;2023-04-12T13:43:46;2.35;;;2.15;;
60344;SDS011;46188;52.324;8.032;2023-04-12T13:46:11;3.00;;;1.90;;
60344;SDS011;46188;52.324;8.032;2023-04-12T13:48:37;2.17;;;1.98;;
60344;SDS011;46188;52.324;8.032;2023-04-12T13:51:02;2.15;;;1.73;;
60344;SDS011;46188;52.324;8.032;2023-04-12T13:53:28;1.90;;;1.70;;
60344;SDS011;46188;52.324;8.032;2023-04-12T13:55:54;2.30;;;1.80;;
60344;SDS011;46188;52.324;8.032;2023-04-12T13:58:20;2.13;;;1.80;;
60344;SDS011;46188;52.324;8.032;2023-04-12T14:00:45;2.03;;;1.75;;
60344;SDS011;46188;52.324;8.032;2023-04-12T14:03:10;1.80;;;1.58;;
60344;SDS011;46188;52.324;8.032;2023-04-12T14:05:36;1.85;;;1.60;;
60344;SDS011;46188;52.324;8.032;2023-04-12T14:08:01;1.92;;;1.50;;
60344;SDS011;46188;52.324;8.032;2023-04-12T14:10:26;1.70;;;1.30;;
60344;SDS011;46188;52.324;8.032;2023-04-12T14:12:52;1.88;;;1.17;;
60344;SDS011;46188;52.324;8.032;2023-04-12T14:15:17;2.03;;;1.10;;
60344;SDS011;46188;52.324;8.032;2023-04-12T14:17:43;1.25;;;0.90;;
60344;SDS011;46188;52.324;8.032;2023-04-12T14:20:08;1.77;;;1.00;;
60344;SDS011;46188;52.324;8.032;2023-04-12T14:22:37;2.28;;;1.23;;
60344;SDS011;46188;52.324;8.032;2023-04-12T14:25:02;1.60;;;0.93;;
60344;SDS011;46188;52.324;8.032;2023-04-12T14:27:28;3.55;;;1.20;;
60344;SDS011;46188;52.324;8.032;2023-04-12T14:29:53;2.25;;;1.13;;
60344;SDS011;46188;52.324;8.032;2023-04-12T14:32:18;2.85;;;1.08;;
60344;SDS011;46188;52.324;8.032;2023-04-12T14:34:43;2.55;;;1.30;;
60344;SDS011;46188;52.324;8.032;2023-04-12T14:37:10;3.08;;;1.73;;
60344;SDS011;46188;52.324;8.032;2023-04-12T14:39:35;2.72;;;1.17;;
60344;SDS011;46188;52.324;8.032;2023-04-12T14:42:01;3.72;;;1.15;;
60344;SDS011;46188;52.324;8.032;2023-04-12T14:44:26;1.95;;;1.10;;
60344;SDS011;46188;52.324;8.032;2023-04-12T14:46:52;4.78;;;1.35;;
60344;SDS011;46188;52.324;8.032;2023-04-12T14:49:17;2.20;;;1.10;;
60344;SDS011;46188;52.324;8.032;2023-04-12T14:51:42;2.88;;;1.23;;
60344;SDS011;46188;52.324;8.032;2023-04-12T14:54:08;2.70;;;1.13;;
60344;SDS011;46188;52.324;8.032;2023-04-12T14:56:33;3.00;;;1.27;;
60344;SDS011;46188;52.324;8.032;2023-04-12T14:59:00;3.00;;;1.13;;
60344;SDS011;46188;52.324;8.032;2023-04-12T15:01:25;4.55;;;1.45;;
60344;SDS011;46188;52.324;8.032;2023-04-12T15:03:51;3.95;;;1.20;;
60344;SDS011;46188;52.324;8.032;2023-04-12T15:06:17;2.70;;;1.10;;
60344;SDS011;46188;52.324;8.032;2023-04-12T15:08:43;3.85;;;1.30;;